ISL weather

Atatürk International Airport
Istanbul, İstanbul Province, Turkey

Public forecast

Using degrees Celsius for public forecast. Weather courtesy of forecast.io.

Current aviation weather report (METAR) for Atatürk International Airport

Retrieved 2020/04/05 12:20 UTC (51 minutes ago):

LTBA 051220Z 04015G25KT 9999 -RA SCT008 BKN030 OVC080 10/09 Q1013 NOSIG RMK RWY17L 03017KT RWY05 05019KT RWY23 05015G25KT 020V080

Aviation forecast (TAF) for Atatürk International Airport

Retrieved 2020/04/05 12:00 UTC (1 hour ago):

TAF LTBA 051040Z 0512/0618 04020G30KT 9999 -RA SCT012 BKN030 PROB40 TEMPO 0515/0518 03025G40KT 4000 RA BKN010 BKN020 TEMPO 0610/0614 03025G40KT